Time;durP1;ratioP1;P1;durP2;ratioP2;P2;SDS_P1;SDS_P2;PMS_P1;PMS_P2;Temp;Humidity;BMP_temperature;BMP_pressure;BME280_temperature;BME280_humidity;BME280_pressure;Samples;Min_cycle;Max_cycle;Signal;HPM_P1;HPM_P2
2021/06/18 00:00:27;;;;;;;3.22;2.50;;;17.00;99.90;;;;;;4318094;33;20236;-71
2021/06/18 00:02:54;;;;;;;6.10;2.75;;;17.00;99.90;;;;;;4306392;33;20191;-71
2021/06/18 00:05:20;;;;;;;5.12;2.50;;;17.00;99.90;;;;;;4312929;33;20514;-71
2021/06/18 00:07:47;;;;;;;4.93;2.50;;;17.00;99.90;;;;;;4320727;33;20090;-71
2021/06/18 00:10:15;;;;;;;3.67;2.45;;;16.90;99.90;;;;;;4332802;33;20446;-71
2021/06/18 00:12:41;;;;;;;4.95;2.50;;;16.90;99.90;;;;;;4320792;33;20070;-70
2021/06/18 00:15:09;;;;;;;6.72;3.08;;;16.90;99.90;;;;;;4308611;33;20079;-70
2021/06/18 00:17:35;;;;;;;7.60;2.95;;;16.90;99.90;;;;;;4308907;33;20083;-71
2021/06/18 00:20:04;;;;;;;6.35;2.80;;;16.90;99.90;;;;;;4320603;33;20086;-71
2021/06/18 00:22:31;;;;;;;5.75;2.80;;;16.80;99.90;;;;;;4320911;33;20066;-71
2021/06/18 00:24:57;;;;;;;5.05;2.47;;;16.80;99.90;;;;;;4340056;33;20160;-71
2021/06/18 00:27:25;;;;;;;4.93;2.72;;;16.70;99.90;;;;;;4320785;33;20083;-71
2021/06/18 00:29:51;;;;;;;3.78;2.60;;;16.80;99.90;;;;;;4320819;33;20105;-71
2021/06/18 00:32:18;;;;;;;3.20;2.22;;;16.70;99.90;;;;;;4320806;33;20086;-70
2021/06/18 00:34:44;;;;;;;4.35;2.25;;;16.80;99.90;;;;;;4325591;33;20098;-71
2021/06/18 00:37:11;;;;;;;2.95;2.33;;;16.70;99.90;;;;;;4318787;33;20507;-70
2021/06/18 00:39:37;;;;;;;3.90;2.30;;;16.70;99.90;;;;;;4305551;33;20079;-71
2021/06/18 00:42:04;;;;;;;3.90;2.30;;;16.70;99.90;;;;;;4318469;33;20182;-71
2021/06/18 00:44:30;;;;;;;3.90;2.12;;;16.60;99.90;;;;;;4318384;33;20175;-71
2021/06/18 00:46:56;;;;;;;3.72;2.50;;;16.60;99.90;;;;;;4320620;33;20537;-70
2021/06/18 00:49:24;;;;;;;5.18;2.22;;;16.60;99.90;;;;;;4333140;33;20180;-70
2021/06/18 00:51:51;;;;;;;4.70;2.40;;;16.60;99.90;;;;;;4321146;33;20082;-71
2021/06/18 00:54:28;;;;;;;5.82;2.45;;;16.50;99.90;;;;;;4332516;33;20074;-70
2021/06/18 00:56:59;;;;;;;4.97;2.80;;;16.50;99.90;;;;;;4333690;33;20093;-70
2021/06/18 00:59:25;;;;;;;4.70;2.85;;;16.50;99.90;;;;;;4308379;33;20168;-71
2021/06/18 01:01:52;;;;;;;6.10;2.60;;;16.50;99.90;;;;;;4308554;33;20105;-71
2021/06/18 01:04:19;;;;;;;4.30;2.37;;;16.50;99.90;;;;;;4308596;33;20541;-70
2021/06/18 01:07:08;;;;;;;2.47;2.22;;;16.50;99.90;;;;;;4308095;33;20087;-69
2021/06/18 01:10:09;;;;;;;3.37;2.20;;;16.50;99.90;;;;;;4311531;33;20089;-70
2021/06/18 01:13:20;;;;;;;4.45;2.00;;;16.60;99.90;;;;;;4312034;33;20066;-69
2021/06/18 01:16:07;;;;;;;5.70;2.40;;;16.50;99.90;;;;;;4321566;33;20237;-70
2021/06/18 01:18:50;;;;;;;4.53;2.00;;;16.60;99.90;;;;;;4307827;33;20075;-70
2021/06/18 01:21:33;;;;;;;6.18;2.40;;;16.60;99.90;;;;;;4308952;33;20078;-71
2021/06/18 01:24:34;;;;;;;3.60;2.22;;;16.60;99.90;;;;;;4298028;33;20512;-71
2021/06/18 01:27:28;;;;;;;2.22;1.45;;;16.70;99.90;;;;;;4323035;33;20153;-70
2021/06/18 01:30:15;;;;;;;5.18;1.85;;;16.70;99.90;;;;;;4333914;33;20161;-70
2021/06/18 01:33:01;;;;;;;3.85;1.92;;;16.70;99.90;;;;;;4334378;33;20090;-71
2021/06/18 01:35:56;;;;;;;3.30;1.95;;;16.70;99.90;;;;;;4320376;33;20086;-70
2021/06/18 01:38:24;;;;;;;3.17;2.10;;;16.80;99.90;;;;;;4331055;33;20084;-70
2021/06/18 01:40:57;;;;;;;2.83;2.20;;;16.80;99.90;;;;;;4307892;33;20465;-70
2021/06/18 01:43:23;;;;;;;5.28;2.35;;;16.80;99.90;;;;;;4309191;33;20072;-70
2021/06/18 01:45:49;;;;;;;3.67;2.58;;;16.90;99.90;;;;;;4320155;33;20083;-70
2021/06/18 01:48:16;;;;;;;3.42;2.33;;;16.90;99.90;;;;;;4312232;33;20071;-72
2021/06/18 01:50:43;;;;;;;3.97;2.47;;;16.90;99.90;;;;;;4319602;33;20071;-70
2021/06/18 01:53:16;;;;;;;5.60;2.85;;;16.90;99.90;;;;;;4331883;33;20063;-70
2021/06/18 01:55:42;;;;;;;3.15;2.12;;;17.00;99.90;;;;;;4319716;33;20071;-70
2021/06/18 01:58:10;;;;;;;3.53;2.15;;;17.00;99.90;;;;;;4319473;33;20506;-70
2021/06/18 02:00:40;;;;;;;2.58;1.75;;;17.00;99.90;;;;;;4331601;33;20158;-70
2021/06/18 02:03:09;;;;;;;3.47;1.85;;;17.00;99.90;;;;;;4319473;33;20072;-71
2021/06/18 02:05:37;;;;;;;4.07;2.10;;;17.00;99.90;;;;;;4340667;32;20105;-70
2021/06/18 02:08:05;;;;;;;3.83;1.83;;;17.00;99.90;;;;;;4323084;33;20485;-69
2021/06/18 02:10:32;;;;;;;3.50;1.90;;;17.00;99.90;;;;;;4310083;32;20168;-70
2021/06/18 02:12:59;;;;;;;8.60;1.98;;;16.90;99.90;;;;;;4309794;33;20079;-70
2021/06/18 02:15:25;;;;;;;2.12;1.55;;;16.90;99.90;;;;;;4322957;33;20082;-69
2021/06/18 02:17:51;;;;;;;2.47;1.77;;;16.90;99.90;;;;;;4322775;33;20093;-70
2021/06/18 02:20:18;;;;;;;4.70;1.90;;;16.90;99.90;;;;;;4336093;33;20062;-70
2021/06/18 02:22:47;;;;;;;2.85;1.75;;;16.90;99.90;;;;;;4329678;33;20070;-72
2021/06/18 02:25:15;;;;;;;3.92;2.03;;;16.90;99.90;;;;;;4335924;33;20517;-71
2021/06/18 02:27:41;;;;;;;4.85;2.25;;;17.00;99.90;;;;;;4334788;33;20066;-71
2021/06/18 02:30:09;;;;;;;3.00;1.87;;;16.90;99.90;;;;;;4309133;33;20070;-71
2021/06/18 02:32:35;;;;;;;3.70;1.87;;;16.80;99.90;;;;;;4333734;33;20059;-71
2021/06/18 02:35:02;;;;;;;6.60;1.52;;;16.80;99.90;;;;;;4333840;33;20158;-70
2021/06/18 02:37:28;;;;;;;2.00;1.58;;;16.90;99.90;;;;;;4331157;33;20098;-71
2021/06/18 02:39:54;;;;;;;5.85;1.92;;;16.90;99.90;;;;;;4331563;33;20074;-70
2021/06/18 02:42:20;;;;;;;2.33;1.75;;;17.00;99.90;;;;;;4331823;33;20073;-70
2021/06/18 02:44:46;;;;;;;2.67;1.90;;;16.80;99.90;;;;;;4319179;33;20447;-71
2021/06/18 02:47:28;;;;;;;5.28;1.77;;;16.80;99.90;;;;;;4318687;33;20078;-70
2021/06/18 02:50:05;;;;;;;2.85;1.70;;;16.90;99.90;;;;;;4319684;33;20064;-70
2021/06/18 02:52:42;;;;;;;4.00;1.90;;;16.90;99.90;;;;;;4332555;33;20449;-72
2021/06/18 02:55:51;;;;;;;1.70;1.35;;;17.00;99.90;;;;;;4332963;33;20157;-70
2021/06/18 02:58:30;;;;;;;3.50;1.70;;;17.00;99.90;;;;;;4326594;33;20155;-69
2021/06/18 03:00:57;;;;;;;2.42;1.65;;;17.00;99.90;;;;;;4307252;33;20071;-70
2021/06/18 03:03:29;;;;;;;2.78;1.85;;;17.00;99.90;;;;;;4318938;33;20066;-69
2021/06/18 03:05:59;;;;;;;4.47;1.80;;;17.20;99.90;;;;;;4324986;33;20161;-70
2021/06/18 03:08:26;;;;;;;3.78;1.75;;;17.20;99.90;;;;;;4318839;33;20083;-69
2021/06/18 03:10:52;;;;;;;3.03;1.50;;;17.30;99.90;;;;;;4318818;33;20519;-70
2021/06/18 03:13:26;;;;;;;3.92;1.87;;;17.20;99.90;;;;;;4331228;33;20093;-69
2021/06/18 03:15:52;;;;;;;2.00;1.40;;;17.10;99.90;;;;;;4319092;33;20075;-70
2021/06/18 03:18:22;;;;;;;5.60;1.67;;;17.20;99.90;;;;;;4330804;33;20070;-71
2021/06/18 03:20:56;;;;;;;1.85;1.50;;;17.20;99.90;;;;;;4306799;33;20082;-70
2021/06/18 03:23:23;;;;;;;2.20;1.40;;;17.40;99.90;;;;;;4319359;32;20449;-71
2021/06/18 03:25:50;;;;;;;2.30;1.30;;;17.60;99.90;;;;;;4323326;32;20090;-71
2021/06/18 03:28:16;;;;;;;1.20;1.10;;;17.60;98.00;;;;;;4336094;32;20160;-71
2021/06/18 03:30:47;;;;;;;1.20;1.00;;;17.50;93.80;;;;;;4323151;32;20069;-71
2021/06/18 03:33:13;;;;;;;1.27;1.10;;;17.60;92.70;;;;;;4323987;32;20172;-71
2021/06/18 03:35:40;;;;;;;1.65;1.27;;;17.70;91.00;;;;;;4335955;32;20086;-70
2021/06/18 03:38:06;;;;;;;3.22;1.45;;;17.70;92.00;;;;;;4347523;32;20077;-70
2021/06/18 03:40:35;;;;;;;3.70;1.50;;;17.60;91.40;;;;;;4323244;32;20059;-70
2021/06/18 03:43:01;;;;;;;2.33;1.33;;;17.70;91.80;;;;;;4336998;32;20497;-71
2021/06/18 03:45:28;;;;;;;3.08;1.20;;;17.70;90.70;;;;;;4323499;32;20467;-69
2021/06/18 03:47:54;;;;;;;2.28;1.20;;;17.70;87.30;;;;;;4335731;32;20441;-71
2021/06/18 03:50:22;;;;;;;1.10;1.00;;;17.70;90.10;;;;;;4339081;32;20501;-71
2021/06/18 03:52:49;;;;;;;3.78;1.87;;;17.80;91.10;;;;;;4332577;32;20155;-70
2021/06/18 03:55:15;;;;;;;1.50;1.08;;;18.10;90.40;;;;;;4319373;32;20086;-71
2021/06/18 03:57:47;;;;;;;3.28;1.20;;;18.10;86.00;;;;;;4324080;32;20078;-70
2021/06/18 04:00:14;;;;;;;4.43;1.60;;;18.20;83.40;;;;;;4336023;32;20054;-69
2021/06/18 04:02:40;;;;;;;1.40;0.98;;;18.20;82.70;;;;;;4323005;32;20153;-71
2021/06/18 04:05:08;;;;;;;1.50;1.15;;;18.00;83.60;;;;;;4311907;32;20082;-70
2021/06/18 04:07:34;;;;;;;2.03;1.45;;;18.10;81.10;;;;;;4323742;32;20073;-70
2021/06/18 04:10:01;;;;;;;1.65;1.25;;;18.10;77.10;;;;;;4325533;32;20067;-71
2021/06/18 04:12:27;;;;;;;1.40;1.30;;;17.90;78.20;;;;;;4323105;32;20531;-69
2021/06/18 04:14:55;;;;;;;1.55;1.08;;;18.20;79.00;;;;;;4323341;32;20067;-70
2021/06/18 04:17:21;;;;;;;2.75;1.30;;;18.10;78.20;;;;;;4335520;32;20062;-70
2021/06/18 04:19:48;;;;;;;4.82;1.50;;;18.30;77.40;;;;;;4336894;32;20170;-71
2021/06/18 04:22:16;;;;;;;2.65;1.12;;;18.60;77.10;;;;;;4313974;32;20055;-70
2021/06/18 04:24:42;;;;;;;3.33;1.12;;;18.30;72.10;;;;;;4325650;32;20063;-70
2021/06/18 04:27:09;;;;;;;0.95;0.93;;;18.20;75.50;;;;;;4338365;32;20077;-72
2021/06/18 04:29:35;;;;;;;1.98;1.23;;;19.20;71.20;;;;;;4325686;32;20519;-71
2021/06/18 04:32:01;;;;;;;1.90;1.30;;;20.00;57.20;;;;;;4338143;32;20074;-71
2021/06/18 04:34:27;;;;;;;1.73;1.27;;;20.60;53.60;;;;;;4350340;32;20092;-71
2021/06/18 04:36:53;;;;;;;1.02;0.93;;;20.50;53.00;;;;;;4343421;32;20074;-71
2021/06/18 04:39:20;;;;;;;1.02;0.93;;;21.40;47.60;;;;;;4337583;32;20100;-71
2021/06/18 04:41:46;;;;;;;2.67;1.20;;;21.00;46.10;;;;;;4325357;32;20063;-70
2021/06/18 04:44:12;;;;;;;1.45;1.00;;;21.00;47.80;;;;;;4350144;32;20070;-71
2021/06/18 04:46:38;;;;;;;4.97;1.80;;;20.80;47.90;;;;;;4350112;32;20469;-71
2021/06/18 04:49:04;;;;;;;2.62;1.40;;;21.20;49.20;;;;;;4350041;32;20070;-72
2021/06/18 04:51:31;;;;;;;3.75;1.20;;;21.80;45.90;;;;;;4351343;32;20142;-71
2021/06/18 04:53:57;;;;;;;3.10;1.30;;;21.10;46.70;;;;;;4338141;32;20074;-70
2021/06/18 04:56:23;;;;;;;2.50;1.33;;;21.30;46.30;;;;;;4337907;32;20174;-72
2021/06/18 04:58:50;;;;;;;6.32;1.52;;;21.10;46.60;;;;;;4327115;32;20105;-72
2021/06/18 05:01:16;;;;;;;2.85;1.12;;;21.60;46.00;;;;;;4351463;32;20070;-71
2021/06/18 05:03:43;;;;;;;1.70;1.15;;;21.00;46.40;;;;;;4325556;32;20162;-71
2021/06/18 05:06:09;;;;;;;1.35;1.20;;;21.00;44.90;;;;;;4348143;32;20161;-71
2021/06/18 05:08:35;;;;;;;1.92;1.40;;;21.80;45.50;;;;;;4337341;32;20158;-71
2021/06/18 05:11:01;;;;;;;2.15;1.12;;;21.40;46.50;;;;;;4349571;32;20078;-71
2021/06/18 05:13:28;;;;;;;1.45;1.15;;;21.30;46.40;;;;;;4350215;32;20070;-71
2021/06/18 05:15:54;;;;;;;1.90;1.23;;;21.00;47.30;;;;;;4349713;32;20097;-71
2021/06/18 05:18:20;;;;;;;1.52;1.37;;;21.40;46.70;;;;;;4325531;32;20085;-71
2021/06/18 05:20:46;;;;;;;2.55;1.25;;;21.50;44.60;;;;;;4325094;32;20152;-71
2021/06/18 05:23:12;;;;;;;3.90;1.70;;;21.60;45.30;;;;;;4324832;32;20101;-72
2021/06/18 05:25:38;;;;;;;2.17;1.30;;;21.10;46.40;;;;;;4325035;32;20175;-71
2021/06/18 05:28:05;;;;;;;1.98;1.58;;;21.40;46.50;;;;;;4337473;32;20090;-71
2021/06/18 05:30:31;;;;;;;12.37;2.75;;;20.70;48.10;;;;;;4324505;32;20502;-70
2021/06/18 05:32:57;;;;;;;6.18;1.73;;;21.00;47.30;;;;;;4337492;32;20070;-71
2021/06/18 05:35:23;;;;;;;2.25;1.33;;;21.10;48.30;;;;;;4349320;32;20080;-71
2021/06/18 05:37:51;;;;;;;2.42;1.58;;;21.40;47.70;;;;;;4360471;32;20082;-70
2021/06/18 05:40:17;;;;;;;2.30;1.20;;;21.30;47.50;;;;;;4324898;32;20100;-71
2021/06/18 05:42:43;;;;;;;2.83;1.50;;;21.50;47.40;;;;;;4337072;32;20059;-71
2021/06/18 05:45:10;;;;;;;2.22;1.75;;;21.30;47.40;;;;;;4336724;32;20508;-71
2021/06/18 05:47:37;;;;;;;1.58;1.40;;;21.20;47.80;;;;;;4337779;32;20066;-70
2021/06/18 05:50:07;;;;;;;2.97;1.70;;;20.80;48.40;;;;;;4326234;32;20066;-73
2021/06/18 05:52:33;;;;;;;2.30;1.48;;;21.00;48.60;;;;;;4325160;32;20084;-71
2021/06/18 05:54:59;;;;;;;6.32;1.90;;;21.30;48.40;;;;;;4325499;32;20524;-71
2021/06/18 05:57:26;;;;;;;4.20;1.37;;;21.20;48.90;;;;;;4340389;32;20096;-71
2021/06/18 05:59:52;;;;;;;2.67;1.50;;;21.80;46.70;;;;;;4337090;32;20085;-70
2021/06/18 06:02:19;;;;;;;3.10;1.02;;;21.90;46.10;;;;;;4336786;32;20133;-72
2021/06/18 06:04:45;;;;;;;6.87;1.73;;;21.50;45.60;;;;;;4328438;32;20191;-71
2021/06/18 06:07:11;;;;;;;1.95;1.20;;;21.50;45.70;;;;;;4314997;32;20082;-72
2021/06/18 06:09:37;;;;;;;3.25;1.40;;;21.40;47.50;;;;;;4351310;32;20159;-71
2021/06/18 06:12:04;;;;;;;3.50;1.23;;;20.50;50.80;;;;;;4339009;32;20488;-71
2021/06/18 06:14:30;;;;;;;2.67;1.95;;;20.20;53.00;;;;;;4351366;32;20624;-71
2021/06/18 06:16:56;;;;;;;3.17;1.65;;;20.80;49.10;;;;;;4351437;32;20069;-72
2021/06/18 06:19:23;;;;;;;1.42;1.17;;;20.60;49.70;;;;;;4363203;32;20092;-71
2021/06/18 06:21:49;;;;;;;1.73;1.02;;;21.90;45.80;;;;;;4363517;32;20070;-71
2021/06/18 06:24:15;;;;;;;1.90;1.62;;;21.50;45.60;;;;;;4314376;32;20070;-72
2021/06/18 06:26:42;;;;;;;4.25;1.85;;;21.30;46.90;;;;;;4326572;32;20155;-72
2021/06/18 06:29:09;;;;;;;3.03;1.27;;;21.40;47.30;;;;;;4326208;32;20070;-71
2021/06/18 06:31:35;;;;;;;3.10;1.45;;;20.90;48.30;;;;;;4351021;32;20065;-71
2021/06/18 06:34:02;;;;;;;3.15;1.50;;;20.60;50.40;;;;;;4314913;32;20101;-72
2021/06/18 06:36:28;;;;;;;3.40;1.42;;;20.80;51.60;;;;;;4352013;32;20066;-70
2021/06/18 06:38:54;;;;;;;3.42;1.50;;;21.30;50.00;;;;;;4352170;32;20084;-71
2021/06/18 06:41:20;;;;;;;1.70;1.00;;;20.60;49.20;;;;;;4351807;32;20151;-71
2021/06/18 06:43:47;;;;;;;2.92;1.45;;;20.60;49.10;;;;;;4340589;32;20074;-71
2021/06/18 06:46:13;;;;;;;0.93;0.73;;;20.40;47.80;;;;;;4365887;32;20085;-71
2021/06/18 06:48:40;;;;;;;1.17;0.80;;;20.90;45.70;;;;;;4354459;32;20070;-70
2021/06/18 06:51:06;;;;;;;2.00;1.52;;;20.40;41.80;;;;;;4360098;32;20111;-72
2021/06/18 06:53:33;;;;;;;2.20;1.08;;;20.00;45.60;;;;;;4349698;32;20161;-70
2021/06/18 06:56:03;;;;;;;1.35;0.80;;;20.30;45.50;;;;;;4341528;32;20146;-67
2021/06/18 06:58:32;;;;;;;2.20;1.25;;;20.70;46.10;;;;;;4321599;32;20074;-66
2021/06/18 07:01:01;;;;;;;4.90;1.60;;;20.40;44.10;;;;;;4323798;32;20105;-66
2021/06/18 07:03:31;;;;;;;3.25;1.30;;;20.80;43.60;;;;;;4323598;32;20070;-66
2021/06/18 07:06:01;;;;;;;1.52;1.10;;;20.30;42.10;;;;;;4336505;32;20069;-68
2021/06/18 07:08:37;;;;;;;5.25;1.23;;;20.60;43.90;;;;;;4324699;32;20550;-66
2021/06/18 07:11:05;;;;;;;3.37;1.40;;;21.10;44.20;;;;;;4320825;32;20094;-66
2021/06/18 07:13:45;;;;;;;2.50;1.27;;;20.30;40.70;;;;;;4337116;32;20089;-67
2021/06/18 07:16:18;;;;;;;4.80;1.60;;;20.50;41.60;;;;;;4330380;32;20054;-69
2021/06/18 07:18:44;;;;;;;4.78;1.15;;;20.80;39.60;;;;;;4350472;32;20085;-69
2021/06/18 07:21:10;;;;;;;1.52;1.23;;;20.80;40.30;;;;;;4352876;32;20138;-67
2021/06/18 07:23:37;;;;;;;1.55;1.20;;;21.20;41.00;;;;;;4365067;32;20103;-72
2021/06/18 07:26:03;;;;;;;3.10;1.70;;;20.70;43.10;;;;;;4359501;32;20169;-69
2021/06/18 07:28:29;;;;;;;5.53;1.65;;;20.40;44.90;;;;;;4353376;32;20086;-68
2021/06/18 07:30:55;;;;;;;2.60;1.30;;;20.30;45.50;;;;;;4361626;32;20157;-65
2021/06/18 07:33:22;;;;;;;1.20;1.10;;;20.70;43.30;;;;;;4350527;32;20058;-66
2021/06/18 07:35:48;;;;;;;4.55;1.25;;;20.60;45.20;;;;;;4342070;32;20532;-67
2021/06/18 07:38:14;;;;;;;2.58;1.30;;;20.50;45.50;;;;;;4336368;32;20065;-66
2021/06/18 07:40:40;;;;;;;2.12;1.08;;;20.00;43.90;;;;;;4339286;32;20081;-67
2021/06/18 07:43:06;;;;;;;4.75;1.87;;;20.40;44.20;;;;;;4347713;32;20067;-68
2021/06/18 07:45:33;;;;;;;1.40;1.30;;;20.80;43.10;;;;;;4337139;32;20070;-66
2021/06/18 07:47:59;;;;;;;3.08;1.10;;;20.70;42.60;;;;;;4361457;32;20082;-67
2021/06/18 07:50:26;;;;;;;2.37;1.20;;;21.20;42.50;;;;;;4339985;32;20533;-66
2021/06/18 07:52:52;;;;;;;6.18;1.70;;;22.00;41.10;;;;;;4333687;32;20075;-66
2021/06/18 07:55:21;;;;;;;3.95;1.17;;;21.30;43.00;;;;;;4361136;32;20086;-65
2021/06/18 07:57:47;;;;;;;3.53;1.60;;;20.80;44.30;;;;;;4330675;32;20080;-68
2021/06/18 08:00:14;;;;;;;2.78;1.50;;;20.60;45.10;;;;;;4327415;32;20204;-67
2021/06/18 08:02:40;;;;;;;4.20;1.52;;;21.30;45.10;;;;;;4347270;32;20522;-67
2021/06/18 08:05:10;;;;;;;3.55;1.65;;;21.00;45.40;;;;;;4335568;32;20078;-67
2021/06/18 08:07:38;;;;;;;3.20;1.45;;;20.70;46.40;;;;;;4334410;32;20553;-68
2021/06/18 08:10:05;;;;;;;2.22;1.20;;;21.00;46.40;;;;;;4317340;32;20082;-66
2021/06/18 08:12:31;;;;;;;3.92;1.50;;;21.50;44.60;;;;;;4338668;32;20137;-68
2021/06/18 08:14:57;;;;;;;4.62;1.30;;;20.70;44.60;;;;;;4344861;32;20073;-66
2021/06/18 08:17:23;;;;;;;0.90;0.90;;;20.60;43.30;;;;;;4348495;32;20098;-68
2021/06/18 08:19:50;;;;;;;4.70;1.48;;;21.40;43.60;;;;;;4339921;32;20161;-68
2021/06/18 08:22:16;;;;;;;2.33;1.48;;;21.10;42.60;;;;;;4346049;32;20095;-64
2021/06/18 08:24:43;;;;;;;2.15;1.23;;;20.90;43.00;;;;;;4337110;32;20090;-65
2021/06/18 08:27:09;;;;;;;5.57;1.77;;;21.40;43.30;;;;;;4355011;32;20077;-68
2021/06/18 08:29:36;;;;;;;4.80;1.35;;;21.40;41.20;;;;;;4349448;32;20073;-70
2021/06/18 08:32:03;;;;;;;1.95;1.17;;;21.00;41.30;;;;;;4319588;32;20081;-67
2021/06/18 08:34:30;;;;;;;1.92;1.10;;;21.20;41.60;;;;;;4335950;32;20067;-68
2021/06/18 08:36:56;;;;;;;1.00;0.90;;;21.30;41.70;;;;;;4345329;32;20167;-70
2021/06/18 08:39:22;;;;;;;1.90;1.05;;;20.90;41.10;;;;;;4340878;32;20071;-69
2021/06/18 08:41:49;;;;;;;3.72;1.23;;;20.70;42.70;;;;;;4349071;32;20077;-71
2021/06/18 08:44:19;;;;;;;2.90;1.20;;;21.20;41.50;;;;;;4331038;32;20108;-68
2021/06/18 08:46:46;;;;;;;4.10;0.90;;;21.10;41.70;;;;;;4347007;32;20050;-65
2021/06/18 08:49:12;;;;;;;3.10;1.62;;;20.90;41.00;;;;;;4348941;32;20070;-69
2021/06/18 08:51:39;;;;;;;2.70;1.20;;;21.40;40.60;;;;;;4345073;32;20990;-69
2021/06/18 08:54:05;;;;;;;2.08;1.30;;;21.30;39.30;;;;;;4341873;32;20187;-64
2021/06/18 08:56:32;;;;;;;5.15;1.40;;;21.20;40.60;;;;;;4355618;32;20062;-64
2021/06/18 08:58:58;;;;;;;1.37;0.95;;;21.30;40.40;;;;;;4334272;32;20137;-67
2021/06/18 09:01:24;;;;;;;3.10;1.27;;;21.30;43.30;;;;;;4346269;32;20074;-67
2021/06/18 09:03:51;;;;;;;1.37;1.10;;;21.10;42.50;;;;;;4344925;32;20089;-72
2021/06/18 09:06:30;;;;;;;2.12;1.20;;;21.20;40.80;;;;;;4345203;32;20137;-67
2021/06/18 09:09:35;;;;;;;2.37;1.65;;;21.40;40.00;;;;;;4353887;32;20078;-69
2021/06/18 09:12:03;;;;;;;4.25;1.30;;;21.30;39.30;;;;;;4289174;33;20080;-68
2021/06/18 09:14:36;;;;;;;8.52;2.40;;;21.40;38.70;;;;;;4279825;33;20106;-65
2021/06/18 09:17:18;;;;;;;2.08;1.15;;;21.30;40.20;;;;;;4317760;32;20140;-69
2021/06/18 09:19:51;;;;;;;2.65;1.30;;;21.40;40.50;;;;;;4341641;32;20110;-70
2021/06/18 09:22:38;;;;;;;2.33;1.20;;;21.10;38.30;;;;;;4340211;32;20100;-66
2021/06/18 09:25:16;;;;;;;3.62;1.20;;;21.50;37.90;;;;;;4344974;32;20528;-69
2021/06/18 09:27:51;;;;;;;2.92;1.27;;;21.60;38.00;;;;;;4354083;32;20145;-69
2021/06/18 09:30:32;;;;;;;2.47;1.23;;;21.20;38.20;;;;;;4347934;32;20070;-67
2021/06/18 09:33:19;;;;;;;1.42;1.30;;;21.10;40.30;;;;;;4339288;32;20086;-68
2021/06/18 09:36:21;;;;;;;1.55;0.98;;;21.40;39.20;;;;;;4329197;32;20090;-71
2021/06/18 09:38:53;;;;;;;3.75;1.23;;;21.90;37.00;;;;;;4277254;33;20079;-71
2021/06/18 09:41:45;;;;;;;2.30;1.00;;;22.00;36.00;;;;;;4331259;32;20066;-67
2021/06/18 09:44:19;;;;;;;3.10;1.20;;;22.00;35.60;;;;;;4345043;32;20437;-74
2021/06/18 09:46:56;;;;;;;2.80;1.00;;;22.10;37.20;;;;;;4337212;32;20138;-71
2021/06/18 09:49:32;;;;;;;1.02;1.00;;;21.70;38.00;;;;;;4342518;32;20094;-72
2021/06/18 09:52:06;;;;;;;1.25;1.08;;;21.70;35.70;;;;;;4362234;32;20145;-71
2021/06/18 09:54:38;;;;;;;2.40;1.15;;;21.80;35.90;;;;;;4331163;32;20075;-70
2021/06/18 09:57:13;;;;;;;2.25;1.10;;;21.30;37.40;;;;;;4345728;32;20069;-71
2021/06/18 09:59:59;;;;;;;1.67;1.15;;;21.50;37.50;;;;;;4337807;32;20078;-71
2021/06/18 10:02:35;;;;;;;1.87;1.27;;;21.60;36.20;;;;;;4324934;32;20086;-75
2021/06/18 10:05:04;;;;;;;2.65;1.00;;;21.90;36.90;;;;;;4360968;32;20115;-72
2021/06/18 10:07:31;;;;;;;4.65;1.50;;;22.00;35.90;;;;;;4333108;32;20513;-73
2021/06/18 10:09:59;;;;;;;1.25;1.15;;;21.90;36.60;;;;;;4350641;32;20074;-74
2021/06/18 10:12:28;;;;;;;2.75;1.23;;;22.10;35.40;;;;;;4330820;32;20151;-73
2021/06/18 10:14:55;;;;;;;4.65;1.10;;;22.10;34.40;;;;;;4342294;32;20124;-71
2021/06/18 10:17:22;;;;;;;1.90;1.20;;;21.60;37.00;;;;;;4330450;32;20077;-71
2021/06/18 10:19:48;;;;;;;2.05;1.17;;;22.40;36.40;;;;;;4338841;32;20058;-67
2021/06/18 10:22:19;;;;;;;3.45;1.33;;;22.40;35.50;;;;;;4320803;32;20183;-71
2021/06/18 10:24:50;;;;;;;1.87;1.05;;;22.00;35.10;;;;;;4314717;32;20147;-75
2021/06/18 10:27:18;;;;;;;3.33;1.05;;;22.00;35.50;;;;;;4340543;32;20529;-70
2021/06/18 10:29:45;;;;;;;0.90;0.90;;;22.30;36.90;;;;;;4332935;32;20074;-68
2021/06/18 10:32:32;;;;;;;4.95;1.20;;;22.30;35.70;;;;;;4328644;32;20474;-72
2021/06/18 10:35:02;;;;;;;2.05;1.40;;;22.00;34.50;;;;;;4332220;32;20163;-65
2021/06/18 10:37:31;;;;;;;2.30;1.10;;;22.10;33.20;;;;;;4338030;32;20177;-75
2021/06/18 10:40:09;;;;;;;1.85;1.08;;;22.30;33.20;;;;;;4342531;32;20086;-72
2021/06/18 10:42:35;;;;;;;2.15;1.02;;;22.30;32.60;;;;;;4348015;32;20089;-71
2021/06/18 10:45:02;;;;;;;2.85;1.12;;;22.30;33.60;;;;;;4342826;32;20085;-72
2021/06/18 10:47:33;;;;;;;2.62;1.20;;;22.40;33.20;;;;;;4346755;32;20101;-73
2021/06/18 10:50:00;;;;;;;1.55;0.90;;;22.40;32.80;;;;;;4348859;32;20158;-73
2021/06/18 10:52:40;;;;;;;2.67;1.45;;;22.30;32.60;;;;;;4335317;32;20593;-72
2021/06/18 10:55:07;;;;;;;0.70;0.70;;;22.80;32.70;;;;;;4317659;32;20544;-76
2021/06/18 10:57:36;;;;;;;2.37;1.20;;;21.70;34.00;;;;;;4323259;32;20077;-73
2021/06/18 11:00:11;;;;;;;1.33;1.10;;;22.30;33.40;;;;;;4344582;32;20141;-73
2021/06/18 11:02:41;;;;;;;5.53;1.30;;;21.90;33.20;;;;;;4338656;32;20067;-71
2021/06/18 11:05:28;;;;;;;4.03;1.20;;;22.20;33.20;;;;;;4338912;32;20074;-69
2021/06/18 11:08:16;;;;;;;1.33;0.98;;;22.80;32.50;;;;;;4351097;32;20205;-75
2021/06/18 11:10:42;;;;;;;1.12;0.88;;;21.60;33.40;;;;;;4337247;32;20534;-76
2021/06/18 11:13:10;;;;;;;1.75;1.15;;;22.40;33.00;;;;;;4323282;32;20108;-73
2021/06/18 11:15:43;;;;;;;1.45;1.35;;;22.70;32.80;;;;;;4320503;32;20078;-68
2021/06/18 11:18:31;;;;;;;3.70;1.33;;;22.60;30.40;;;;;;4346438;32;20505;-72
2021/06/18 11:20:58;;;;;;;4.57;1.45;;;22.70;30.40;;;;;;4341968;32;20511;-71
2021/06/18 11:23:32;;;;;;;4.40;1.80;;;22.60;31.90;;;;;;4346526;32;20141;-73
2021/06/18 11:26:00;;;;;;;1.12;1.00;;;22.10;31.50;;;;;;4346454;32;20074;-75
2021/06/18 11:28:27;;;;;;;2.55;0.98;;;22.40;30.80;;;;;;4323978;32;20075;-75
2021/06/18 11:31:01;;;;;;;1.35;1.02;;;22.40;31.90;;;;;;4359966;32;20529;-71
2021/06/18 11:34:01;;;;;;;2.12;1.10;;;22.70;29.80;;;;;;4341871;32;20073;-68
2021/06/18 11:36:33;;;;;;;4.57;1.12;;;22.60;28.60;;;;;;4358252;32;20094;-69
2021/06/18 11:39:08;;;;;;;3.05;1.27;;;22.30;29.40;;;;;;4348149;32;20067;-68
2021/06/18 11:41:40;;;;;;;2.97;1.02;;;22.50;29.50;;;;;;4349796;32;20079;-70
2021/06/18 11:44:08;;;;;;;3.05;1.30;;;22.90;30.00;;;;;;4335965;32;20079;-71
2021/06/18 11:46:36;;;;;;;2.97;1.15;;;22.30;29.90;;;;;;4333924;32;20096;-71
2021/06/18 11:49:12;;;;;;;3.30;1.00;;;22.30;30.30;;;;;;4316411;32;20497;-70
2021/06/18 11:51:39;;;;;;;0.80;0.80;;;23.00;30.10;;;;;;4348799;32;20082;-71
2021/06/18 11:54:06;;;;;;;1.77;1.05;;;22.80;30.10;;;;;;4349673;32;20170;-71
2021/06/18 11:56:34;;;;;;;2.05;1.10;;;22.70;29.60;;;;;;4338193;32;20077;-71
2021/06/18 11:59:00;;;;;;;1.55;1.12;;;22.80;29.70;;;;;;4337960;32;20078;-70
2021/06/18 12:01:30;;;;;;;3.12;1.02;;;23.10;29.80;;;;;;4338068;32;20512;-70
2021/06/18 12:04:00;;;;;;;2.30;1.10;;;22.50;29.70;;;;;;4337971;32;20152;-70
2021/06/18 12:06:35;;;;;;;2.35;1.15;;;23.00;28.80;;;;;;4335064;32;20442;-71
2021/06/18 12:09:13;;;;;;;1.23;1.13;;;22.50;29.20;;;;;;4323110;32;20074;-70
2021/06/18 12:11:56;;;;;;;1.98;0.75;;;23.00;29.80;;;;;;4324880;32;20089;-70
2021/06/18 12:14:22;;;;;;;5.93;1.92;;;22.50;31.20;;;;;;4324977;32;20075;-70
2021/06/18 12:16:52;;;;;;;1.33;0.90;;;22.60;30.90;;;;;;4348127;32;20674;-71
2021/06/18 12:19:23;;;;;;;0.75;0.75;;;22.60;30.40;;;;;;4338902;32;20175;-72
2021/06/18 12:22:05;;;;;;;1.62;0.95;;;22.90;30.00;;;;;;4340489;32;20460;-72
2021/06/18 12:24:43;;;;;;;3.90;1.02;;;23.20;30.00;;;;;;4339622;32;20531;-70
2021/06/18 12:27:14;;;;;;;3.33;1.35;;;22.20;30.90;;;;;;4349271;32;20492;-73
2021/06/18 12:29:44;;;;;;;0.82;0.82;;;22.50;30.90;;;;;;4348335;32;20519;-72
2021/06/18 12:32:13;;;;;;;1.55;1.10;;;22.70;31.80;;;;;;4335248;32;20514;-73
2021/06/18 12:34:54;;;;;;;2.92;0.80;;;23.10;31.40;;;;;;4339036;32;20066;-73
2021/06/18 12:37:26;;;;;;;1.62;0.98;;;22.70;30.10;;;;;;4345796;32;20065;-73
2021/06/18 12:40:19;;;;;;;2.40;1.35;;;22.70;30.50;;;;;;4326307;32;20150;-72
2021/06/18 12:42:50;;;;;;;3.53;1.02;;;22.80;30.90;;;;;;4354448;32;20082;-72
2021/06/18 12:45:30;;;;;;;2.15;1.10;;;22.40;29.90;;;;;;4353108;32;20066;-73
2021/06/18 12:48:16;;;;;;;3.08;1.10;;;22.70;30.30;;;;;;4340865;32;20104;-73
2021/06/18 12:50:43;;;;;;;;;;;22.40;29.80;;;;;;4350733;32;20229;-69
2021/06/18 12:53:12;;;;;;;1.42;0.88;;;22.60;30.60;;;;;;4341583;32;19976;-68
2021/06/18 12:55:40;;;;;;;4.65;1.05;;;22.50;30.00;;;;;;4334012;32;20521;-68
2021/06/18 12:58:18;;;;;;;1.77;0.82;;;22.70;30.70;;;;;;4339983;32;20081;-69
2021/06/18 13:01:08;;;;;;;3.08;1.10;;;22.70;30.00;;;;;;4338656;32;20070;-70
2021/06/18 13:03:46;;;;;;;1.87;1.00;;;22.40;30.70;;;;;;4331387;32;20160;-70